createdAt,value
2023-05-14T00:02:22.909Z,101746.00
2023-05-14T00:04:50.600Z,101740.78
2023-05-14T00:07:18.375Z,101735.41
2023-05-14T00:09:46.233Z,101735.13
2023-05-14T00:12:13.992Z,101732.03
2023-05-14T00:14:41.742Z,101730.13
2023-05-14T00:17:09.503Z,101733.66
2023-05-14T00:19:41.807Z,101724.97
2023-05-14T00:22:09.707Z,101725.81
2023-05-14T00:24:38.129Z,101719.66
2023-05-14T00:27:06.523Z,101713.63
2023-05-14T00:29:34.209Z,101715.06
2023-05-14T00:32:01.966Z,101709.03
2023-05-14T00:34:29.683Z,101711.09
2023-05-14T00:36:58.779Z,101708.41
2023-05-14T00:39:26.608Z,101708.13
2023-05-14T00:41:54.387Z,101706.03
2023-05-14T00:44:22.077Z,101697.13
2023-05-14T00:46:49.969Z,101701.13
2023-05-14T00:49:18.614Z,101693.66
2023-05-14T00:51:47.098Z,101698.13
2023-05-14T00:54:17.799Z,101697.69
2023-05-14T00:56:46.752Z,101703.34
2023-05-14T00:59:14.758Z,101707.00
2023-05-14T01:01:42.573Z,101701.28
2023-05-14T01:04:11.629Z,101702.81
2023-05-14T01:06:48.430Z,101699.41
2023-05-14T01:09:24.015Z,101704.91
2023-05-14T01:11:56.972Z,101700.91
2023-05-14T01:14:34.329Z,101696.09
2023-05-14T01:17:06.137Z,101692.19
2023-05-14T01:19:40.558Z,101695.19
2023-05-14T01:22:09.882Z,101685.16
2023-05-14T01:24:37.762Z,101682.97
2023-05-14T01:27:10.895Z,101687.91
2023-05-14T01:29:41.576Z,101680.97
2023-05-14T01:32:10.269Z,101687.75
2023-05-14T01:34:40.986Z,101685.06
2023-05-14T01:37:12.872Z,101683.00
2023-05-14T01:39:43.536Z,101691.63
2023-05-14T01:42:11.912Z,101685.47
2023-05-14T01:44:39.598Z,101677.44
2023-05-14T01:47:07.334Z,101678.53
2023-05-14T01:49:35.018Z,101679.88
2023-05-14T01:52:02.758Z,101673.03
2023-05-14T01:54:31.900Z,101690.22
2023-05-14T01:56:59.634Z,101677.03
2023-05-14T01:59:29.429Z,101670.97
2023-05-14T02:01:57.234Z,101673.00
2023-05-14T02:04:24.996Z,101670.47
2023-05-14T02:06:52.812Z,101679.31
2023-05-14T02:09:20.536Z,101668.31
2023-05-14T02:11:49.686Z,101669.91
2023-05-14T02:14:17.386Z,101674.81
2023-05-14T02:16:45.164Z,101671.75
2023-05-14T02:19:12.962Z,101671.34
2023-05-14T02:21:41.116Z,101672.84
2023-05-14T02:24:09.149Z,101671.66
2023-05-14T02:26:36.853Z,101667.09
2023-05-14T02:29:05.916Z,101671.91
2023-05-14T02:31:33.673Z,101661.78
2023-05-14T02:34:02.407Z,101661.47
2023-05-14T02:36:30.117Z,101659.19
2023-05-14T02:39:01.047Z,101656.03
2023-05-14T02:41:28.975Z,101654.44
2023-05-14T02:43:56.715Z,101657.69
2023-05-14T02:46:25.876Z,101652.69
2023-05-14T02:48:53.608Z,101647.91
2023-05-14T02:51:21.922Z,101648.38
2023-05-14T02:53:50.042Z,101645.66
2023-05-14T02:56:17.702Z,101644.75
2023-05-14T02:58:45.417Z,101640.13
2023-05-14T03:01:13.199Z,101641.59
2023-05-14T03:03:42.628Z,101640.47
2023-05-14T03:06:10.960Z,101643.78
2023-05-14T03:08:38.648Z,101634.59
2023-05-14T03:11:06.948Z,101641.16
2023-05-14T03:13:34.624Z,101639.03
2023-05-14T03:16:02.345Z,101633.19
2023-05-14T03:18:30.754Z,101634.16
2023-05-14T03:20:59.908Z,101632.88
2023-05-14T03:23:27.878Z,101638.72
2023-05-14T03:25:55.666Z,101628.75
2023-05-14T03:28:23.351Z,101637.00
2023-05-14T03:30:51.097Z,101625.38
2023-05-14T03:33:18.921Z,101629.13
2023-05-14T03:35:46.609Z,101622.75
2023-05-14T03:38:15.710Z,101629.16
2023-05-14T03:40:43.586Z,101628.75
2023-05-14T03:43:11.316Z,101632.66
2023-05-14T03:45:40.880Z,101624.56
2023-05-14T03:48:08.743Z,101621.34
2023-05-14T03:50:36.648Z,101626.53
2023-05-14T03:53:04.390Z,101620.81
2023-05-14T03:55:33.412Z,101620.78
2023-05-14T03:58:02.016Z,101622.63
2023-05-14T04:00:29.855Z,101617.41
2023-05-14T04:02:57.629Z,101622.91
2023-05-14T04:05:25.432Z,101614.63
2023-05-14T04:07:53.539Z,101619.78
2023-05-14T04:10:21.527Z,101620.00
2023-05-14T04:12:50.787Z,101620.72
2023-05-14T04:15:18.524Z,101623.56
2023-05-14T04:17:46.288Z,101627.66
2023-05-14T04:20:14.053Z,101627.31
2023-05-14T04:22:41.790Z,101623.28
2023-05-14T04:25:09.939Z,101620.69
2023-05-14T04:27:37.682Z,101619.88
2023-05-14T04:30:08.419Z,101617.22
2023-05-14T04:32:36.458Z,101626.00
2023-05-14T04:35:04.505Z,101621.28
2023-05-14T04:37:32.989Z,101625.75
2023-05-14T04:40:00.926Z,101626.69
2023-05-14T04:42:28.599Z,101628.59
2023-05-14T04:44:56.350Z,101622.44
2023-05-14T04:47:26.521Z,101626.25
2023-05-14T04:49:54.234Z,101630.50
2023-05-14T04:52:21.943Z,101622.53
2023-05-14T04:54:49.703Z,101631.59
2023-05-14T04:57:17.494Z,101621.16
2023-05-14T04:59:45.222Z,101623.63
2023-05-14T05:02:12.893Z,101630.94
2023-05-14T05:04:41.965Z,101626.88
2023-05-14T05:07:09.730Z,101629.09
2023-05-14T05:09:37.485Z,101628.91
2023-05-14T05:12:05.771Z,101629.09
2023-05-14T05:14:33.546Z,101629.34
2023-05-14T05:17:01.330Z,101633.38
2023-05-14T05:19:39.453Z,101627.38
2023-05-14T05:22:11.918Z,101628.09
2023-05-14T05:24:39.655Z,101623.00
2023-05-14T05:27:07.379Z,101623.25
2023-05-14T05:29:36.214Z,101621.88
2023-05-14T05:32:04.088Z,101631.41
2023-05-14T05:34:31.808Z,101645.50
2023-05-14T05:36:59.611Z,101641.97
2023-05-14T05:39:34.546Z,101631.09
2023-05-14T05:42:02.897Z,101633.94
2023-05-14T05:44:30.734Z,101633.59
2023-05-14T05:46:58.566Z,101638.84
2023-05-14T05:49:26.404Z,101636.72
2023-05-14T05:51:54.189Z,101646.13
2023-05-14T05:54:21.908Z,101644.56
2023-05-14T05:56:50.981Z,101643.66
2023-05-14T05:59:18.662Z,101659.38
2023-05-14T06:01:46.672Z,101655.53
2023-05-14T06:04:14.454Z,101658.25
2023-05-14T06:06:42.408Z,101665.53
2023-05-14T06:09:10.123Z,101656.66
2023-05-14T06:11:37.891Z,101653.34
2023-05-14T06:14:06.949Z,101665.84
2023-05-14T06:16:34.795Z,101657.66
2023-05-14T06:19:02.568Z,101661.50
2023-05-14T06:21:30.414Z,101661.69
2023-05-14T06:23:58.144Z,101656.88
2023-05-14T06:26:25.996Z,101654.28
2023-05-14T06:28:53.797Z,101660.06
2023-05-14T06:31:22.946Z,101656.09
2023-05-14T06:33:50.638Z,101659.00
2023-05-14T06:36:18.373Z,101651.56
2023-05-14T06:38:46.200Z,101661.84
2023-05-14T06:41:14.055Z,101657.34
2023-05-14T06:43:41.718Z,101650.63
2023-05-14T06:46:09.419Z,101655.09
2023-05-14T06:48:38.513Z,101660.13
2023-05-14T06:51:06.450Z,101655.91
2023-05-14T06:53:34.118Z,101656.81
2023-05-14T06:56:01.828Z,101660.03
2023-05-14T06:58:29.487Z,101653.59
2023-05-14T07:00:57.357Z,101654.38
2023-05-14T07:03:25.132Z,101651.44
2023-05-14T07:05:54.294Z,101656.25
2023-05-14T07:08:22.317Z,101660.19
2023-05-14T07:10:50.008Z,101653.75
2023-05-14T07:13:17.755Z,101649.50
2023-05-14T07:15:45.466Z,101653.81
2023-05-14T07:18:13.296Z,101657.59
2023-05-14T07:20:41.091Z,101648.97
2023-05-14T07:23:10.127Z,101657.03
2023-05-14T07:25:37.827Z,101655.50
2023-05-14T07:28:05.594Z,101648.66
2023-05-14T07:30:33.263Z,101649.97
2023-05-14T07:33:00.966Z,101663.81
2023-05-14T07:35:28.729Z,101652.72
2023-05-14T07:37:56.450Z,101652.53
2023-05-14T07:40:26.064Z,101656.91
2023-05-14T07:42:54.001Z,101658.56
2023-05-14T07:45:21.698Z,101659.13
2023-05-14T07:47:51.869Z,101647.00
2023-05-14T07:50:20.112Z,101656.44
2023-05-14T07:52:47.776Z,101661.44
2023-05-14T07:55:15.576Z,101668.94
2023-05-14T07:57:44.731Z,101667.91
2023-05-14T08:00:13.544Z,101668.00
2023-05-14T08:02:42.490Z,101676.75
2023-05-14T08:05:10.817Z,101671.66
2023-05-14T08:07:38.619Z,101672.22
2023-05-14T08:10:08.030Z,101671.38
2023-05-14T08:12:35.813Z,101676.63
2023-05-14T08:15:05.815Z,101679.06
2023-05-14T08:17:33.547Z,101675.69
2023-05-14T08:20:01.411Z,101671.22
2023-05-14T08:22:29.336Z,101669.13
2023-05-14T08:24:57.085Z,101678.25
2023-05-14T08:27:24.776Z,101669.75
2023-05-14T08:29:52.624Z,101671.84
2023-05-14T08:32:23.846Z,101665.22
2023-05-14T08:34:52.533Z,101667.44
2023-05-14T08:37:20.418Z,101674.78
2023-05-14T08:39:48.202Z,101668.75
2023-05-14T08:42:19.226Z,101662.09
2023-05-14T08:44:50.393Z,101663.69
2023-05-14T08:47:19.920Z,101662.91
2023-05-14T08:49:53.507Z,101665.91
2023-05-14T08:52:23.306Z,101658.00
2023-05-14T08:54:54.007Z,101660.28
2023-05-14T08:57:24.867Z,101658.81
2023-05-14T08:59:52.665Z,101655.66
2023-05-14T09:02:24.046Z,101660.88
2023-05-14T09:04:56.752Z,101657.16
2023-05-14T09:07:24.923Z,101658.06
2023-05-14T09:09:53.397Z,101657.50
2023-05-14T09:12:21.632Z,101660.00
2023-05-14T09:14:50.698Z,101652.75
2023-05-14T09:17:19.478Z,101661.41
2023-05-14T09:19:49.384Z,101655.44
2023-05-14T09:22:19.023Z,101658.47
2023-05-14T09:24:47.362Z,101667.81
2023-05-14T09:27:21.350Z,101660.66
2023-05-14T09:29:49.462Z,101662.81
2023-05-14T09:32:17.316Z,101658.03
2023-05-14T09:34:45.049Z,101650.28
2023-05-14T09:37:12.839Z,101658.97
2023-05-14T09:39:41.977Z,101647.66
2023-05-14T09:42:09.692Z,101652.13
2023-05-14T09:44:38.121Z,101648.50
2023-05-14T09:47:06.510Z,101652.22
2023-05-14T09:49:35.180Z,101649.59
2023-05-14T09:52:03.709Z,101654.13
2023-05-14T09:54:33.106Z,101659.06
2023-05-14T09:57:02.198Z,101659.84
2023-05-14T09:59:29.887Z,101647.47
2023-05-14T10:01:58.920Z,101645.91
2023-05-14T10:04:26.879Z,101647.00
2023-05-14T10:06:56.169Z,101652.72
2023-05-14T10:09:26.347Z,101655.09
2023-05-14T10:12:00.338Z,101646.88
2023-05-14T10:14:37.543Z,101643.91
2023-05-14T10:17:07.322Z,101648.81
2023-05-14T10:19:36.039Z,101654.44
2023-05-14T10:22:08.080Z,101650.06
2023-05-14T10:24:38.796Z,101641.56
2023-05-14T10:27:07.047Z,101635.69
2023-05-14T10:29:38.282Z,101635.19
2023-05-14T10:32:07.704Z,101635.22
2023-05-14T10:34:41.237Z,101636.38
2023-05-14T10:37:11.033Z,101632.00
2023-05-14T10:39:46.179Z,101638.63
2023-05-14T10:42:17.171Z,101640.00
2023-05-14T10:44:51.385Z,101632.91
2023-05-14T10:47:19.421Z,101636.25
2023-05-14T10:49:50.133Z,101630.81
2023-05-14T10:52:22.052Z,101636.88
2023-05-14T10:54:51.854Z,101628.44
2023-05-14T10:57:20.838Z,101625.81
2023-05-14T10:59:53.251Z,101624.38
2023-05-14T11:02:23.467Z,101618.63
2023-05-14T11:04:59.259Z,101613.06
2023-05-14T11:07:30.001Z,101617.16
2023-05-14T11:10:02.967Z,101615.88
2023-05-14T11:12:31.125Z,101606.50
2023-05-14T11:15:02.303Z,101609.41
2023-05-14T11:17:31.906Z,101611.25
2023-05-14T11:20:00.259Z,101616.84
2023-05-14T11:22:28.402Z,101610.41
2023-05-14T11:24:56.280Z,101609.72
2023-05-14T11:27:24.223Z,101609.22
2023-05-14T11:29:52.177Z,101603.78
2023-05-14T11:32:21.519Z,101606.91
2023-05-14T11:34:49.220Z,101600.22
2023-05-14T11:37:17.903Z,101595.75
2023-05-14T11:39:49.988Z,101602.53
2023-05-14T11:42:19.545Z,101597.84
2023-05-14T11:44:49.016Z,101599.38
2023-05-14T11:47:18.279Z,101598.50
2023-05-14T11:49:47.787Z,101588.91
2023-05-14T11:52:19.517Z,101594.50
2023-05-14T11:54:47.793Z,101592.38
2023-05-14T11:57:17.811Z,101590.28
2023-05-14T11:59:46.339Z,101588.53
2023-05-14T12:02:15.759Z,101591.25
2023-05-14T12:04:45.463Z,101583.44
2023-05-14T12:07:16.875Z,101584.25
2023-05-14T12:09:49.524Z,101598.47
2023-05-14T12:12:19.405Z,101589.28
2023-05-14T12:14:47.340Z,101580.94
2023-05-14T12:17:16.834Z,101579.03
2023-05-14T12:19:45.807Z,101575.50
2023-05-14T12:22:17.264Z,101581.72
2023-05-14T12:24:53.466Z,101580.03
2023-05-14T12:27:23.203Z,101579.84
2023-05-14T12:29:53.410Z,101581.31
2023-05-14T12:32:21.228Z,101575.78
2023-05-14T12:34:48.985Z,101573.97
2023-05-14T12:37:19.092Z,101575.19
2023-05-14T12:39:46.801Z,101570.41
2023-05-14T12:42:15.558Z,101574.56
2023-05-14T12:44:43.511Z,101574.00
2023-05-14T12:47:11.424Z,101570.53
2023-05-14T12:49:39.196Z,101561.66
2023-05-14T12:52:25.741Z,101559.94
2023-05-14T12:54:56.400Z,101560.44
2023-05-14T12:57:24.171Z,101560.09
2023-05-14T12:59:51.885Z,101555.78
2023-05-14T13:02:19.652Z,101543.84
2023-05-14T13:04:47.340Z,101548.44
2023-05-14T13:07:15.169Z,101551.81
2023-05-14T13:09:42.909Z,101540.06
2023-05-14T13:12:12.128Z,101544.78
2023-05-14T13:14:39.841Z,101547.88
2023-05-14T13:17:08.205Z,101540.56
2023-05-14T13:19:36.079Z,101542.44
2023-05-14T13:22:03.840Z,101533.66
2023-05-14T13:24:31.546Z,101538.06
2023-05-14T13:26:59.442Z,101531.47
2023-05-14T13:29:31.491Z,101530.38
2023-05-14T13:31:59.187Z,101534.75
2023-05-14T13:34:27.051Z,101527.06
2023-05-14T13:36:54.780Z,101522.50
2023-05-14T13:39:26.801Z,101524.91
2023-05-14T13:41:56.669Z,101522.28
2023-05-14T13:44:24.471Z,101516.19
2023-05-14T13:46:53.950Z,101515.47
2023-05-14T13:49:21.787Z,101524.09
2023-05-14T13:51:49.452Z,101512.66
2023-05-14T13:54:17.135Z,101512.38
2023-05-14T13:56:45.054Z,101512.59
2023-05-14T13:59:12.766Z,101512.94
2023-05-14T14:01:40.519Z,101506.69
2023-05-14T14:04:10.002Z,101511.44
2023-05-14T14:06:37.751Z,101513.13
2023-05-14T14:09:05.464Z,101502.00
2023-05-14T14:11:33.221Z,101505.25
2023-05-14T14:14:00.937Z,101499.97
2023-05-14T14:16:28.726Z,101508.22
2023-05-14T14:18:57.422Z,101502.28
2023-05-14T14:21:26.558Z,101504.84
2023-05-14T14:23:54.423Z,101497.38
2023-05-14T14:26:22.352Z,101495.66
2023-05-14T14:28:50.084Z,101499.94
2023-05-14T14:31:18.496Z,101485.59
2023-05-14T14:33:46.248Z,101486.47
2023-05-14T14:36:13.995Z,101483.47
2023-05-14T14:38:43.091Z,101491.19
2023-05-14T14:41:10.948Z,101483.53
2023-05-14T14:43:40.251Z,101482.34
2023-05-14T14:46:08.738Z,101482.91
2023-05-14T14:48:37.850Z,101488.03
2023-05-14T14:51:06.191Z,101477.28
2023-05-14T14:53:34.661Z,101490.81
2023-05-14T14:56:03.883Z,101480.00
2023-05-14T14:58:32.089Z,101481.06
2023-05-14T15:01:00.112Z,101470.72
2023-05-14T15:03:28.009Z,101471.41
2023-05-14T15:05:55.875Z,101475.44
2023-05-14T15:08:26.966Z,101471.56
2023-05-14T15:10:54.832Z,101471.06
2023-05-14T15:13:24.544Z,101476.19
2023-05-14T15:15:52.951Z,101469.91
2023-05-14T15:18:20.910Z,101477.91
2023-05-14T15:20:48.693Z,101468.13
2023-05-14T15:23:16.397Z,101470.25
2023-05-14T15:25:44.283Z,101476.22
2023-05-14T15:28:12.138Z,101467.69
2023-05-14T15:30:41.186Z,101475.34
2023-05-14T15:33:09.486Z,101473.84
2023-05-14T15:35:37.595Z,101476.47
2023-05-14T15:38:05.540Z,101477.03
2023-05-14T15:40:34.949Z,101474.69
2023-05-14T15:43:02.922Z,101475.34
2023-05-14T15:45:30.704Z,101463.53
2023-05-14T15:47:59.868Z,101463.31
2023-05-14T15:50:27.733Z,101463.16
2023-05-14T15:52:55.443Z,101465.44
2023-05-14T15:55:23.230Z,101465.56
2023-05-14T15:57:50.990Z,101460.00
2023-05-14T16:00:19.582Z,101456.38
2023-05-14T16:02:47.365Z,101457.84
2023-05-14T16:05:16.537Z,101454.81
2023-05-14T16:07:44.365Z,101451.91
2023-05-14T16:10:12.428Z,101450.06
2023-05-14T16:12:40.188Z,101448.50
2023-05-14T16:15:08.939Z,101453.22
2023-05-14T16:17:36.725Z,101453.78
2023-05-14T16:20:05.798Z,101440.16
2023-05-14T16:22:36.225Z,101448.25
2023-05-14T16:25:04.801Z,101444.88
2023-05-14T16:27:32.778Z,101441.72
2023-05-14T16:30:00.458Z,101442.78
2023-05-14T16:32:28.214Z,101442.59
2023-05-14T16:34:56.529Z,101439.38
2023-05-14T16:37:24.422Z,101432.31
2023-05-14T16:39:53.565Z,101435.06
2023-05-14T16:42:21.428Z,101429.38
2023-05-14T16:44:49.137Z,101442.84
2023-05-14T16:47:16.891Z,101438.09
2023-05-14T16:49:44.588Z,101433.88
2023-05-14T16:52:12.309Z,101439.09
2023-05-14T16:54:40.053Z,101443.25
2023-05-14T16:57:09.170Z,101440.03
2023-05-14T16:59:36.909Z,101436.31
2023-05-14T17:02:04.833Z,101440.66
2023-05-14T17:04:33.439Z,101442.53
2023-05-14T17:07:01.657Z,101441.41
2023-05-14T17:09:29.334Z,101437.97
2023-05-14T17:11:57.036Z,101434.50
2023-05-14T17:14:26.263Z,101432.38
2023-05-14T17:16:54.769Z,101433.75
2023-05-14T17:19:22.557Z,101434.34
2023-05-14T17:21:50.307Z,101440.69
2023-05-14T17:24:18.016Z,101434.88
2023-05-14T17:26:45.761Z,101441.00
2023-05-14T17:29:13.504Z,101432.63
2023-05-14T17:31:43.102Z,101432.56
2023-05-14T17:34:10.793Z,101438.09
2023-05-14T17:36:38.498Z,101437.00
2023-05-14T17:39:06.228Z,101441.88
2023-05-14T17:41:33.986Z,101439.25
2023-05-14T17:44:01.746Z,101441.81
2023-05-14T17:46:29.539Z,101437.75
2023-05-14T17:48:58.884Z,101441.69
2023-05-14T17:51:26.559Z,101450.09
2023-05-14T17:53:54.320Z,101447.38
2023-05-14T17:56:22.088Z,101443.78
2023-05-14T17:58:50.712Z,101449.94
2023-05-14T18:01:19.026Z,101443.72
2023-05-14T18:03:46.871Z,101454.72
2023-05-14T18:06:16.809Z,101449.19
2023-05-14T18:08:44.609Z,101456.94
2023-05-14T18:11:12.345Z,101450.25
2023-05-14T18:13:40.230Z,101449.50
2023-05-14T18:16:08.753Z,101446.09
2023-05-14T18:18:36.596Z,101449.19
2023-05-14T18:21:04.497Z,101444.78
2023-05-14T18:23:33.765Z,101448.06
2023-05-14T18:26:01.464Z,101452.75
2023-05-14T18:28:29.350Z,101445.38
2023-05-14T18:30:57.133Z,101447.88
2023-05-14T18:33:24.870Z,101454.44
2023-05-14T18:35:53.469Z,101454.69
2023-05-14T18:38:21.150Z,101459.34
2023-05-14T18:40:50.416Z,101465.31
2023-05-14T18:43:18.654Z,101457.66
2023-05-14T18:45:47.849Z,101459.16
2023-05-14T18:48:16.178Z,101461.34
2023-05-14T18:50:43.964Z,101460.97
2023-05-14T18:53:11.711Z,101467.81
2023-05-14T18:55:39.521Z,101459.88
2023-05-14T18:58:09.170Z,101462.38
2023-05-14T19:00:36.900Z,101460.09
2023-05-14T19:03:04.940Z,101457.50
2023-05-14T19:05:32.807Z,101465.16
2023-05-14T19:08:00.900Z,101466.72
2023-05-14T19:10:28.748Z,101461.41
2023-05-14T19:12:56.492Z,101462.47
2023-05-14T19:15:26.135Z,101468.53
2023-05-14T19:17:54.379Z,101465.75
2023-05-14T19:20:22.107Z,101462.41
2023-05-14T19:22:49.795Z,101463.16
2023-05-14T19:25:17.607Z,101467.59
2023-05-14T19:27:47.633Z,101466.63
2023-05-14T19:30:15.783Z,101470.94
2023-05-14T19:32:44.859Z,101471.34
2023-05-14T19:35:12.676Z,101465.09
2023-05-14T19:37:40.405Z,101467.47
2023-05-14T19:40:09.158Z,101476.94
2023-05-14T19:42:36.815Z,101478.81
2023-05-14T19:45:04.956Z,101481.41
2023-05-14T19:47:33.126Z,101485.47
2023-05-14T19:50:02.218Z,101481.03
2023-05-14T19:52:29.879Z,101474.81
2023-05-14T19:54:57.609Z,101477.84
2023-05-14T19:57:26.560Z,101478.59
2023-05-14T19:59:54.304Z,101484.53
2023-05-14T20:02:22.713Z,101481.44
2023-05-14T20:04:50.511Z,101489.81
2023-05-14T20:07:20.161Z,101486.34
2023-05-14T20:09:47.919Z,101494.81
2023-05-14T20:12:16.766Z,101495.69
2023-05-14T20:14:44.827Z,101504.44
2023-05-14T20:17:12.781Z,101500.13
2023-05-14T20:19:41.223Z,101504.44
2023-05-14T20:22:08.973Z,101507.66
2023-05-14T20:24:38.526Z,101514.88
2023-05-14T20:27:06.623Z,101506.28
2023-05-14T20:29:34.490Z,101513.19
2023-05-14T20:32:02.317Z,101511.13
2023-05-14T20:34:30.090Z,101511.22
2023-05-14T20:36:58.110Z,101517.78
2023-05-14T20:39:25.885Z,101519.44
2023-05-14T20:41:54.982Z,101521.41
2023-05-14T20:44:22.668Z,101518.16
2023-05-14T20:46:50.506Z,101520.06
2023-05-14T20:49:18.361Z,101510.06
2023-05-14T20:51:46.064Z,101511.91
2023-05-14T20:54:13.749Z,101520.84
2023-05-14T20:56:41.496Z,101518.25
2023-05-14T20:59:10.606Z,101519.97
2023-05-14T21:01:38.491Z,101531.56
2023-05-14T21:04:06.352Z,101529.69
2023-05-14T21:06:34.136Z,101534.47
2023-05-14T21:09:01.892Z,101536.22
2023-05-14T21:11:29.617Z,101533.25
2023-05-14T21:13:57.293Z,101535.84
2023-05-14T21:16:26.563Z,101537.56
2023-05-14T21:18:54.401Z,101530.63
2023-05-14T21:21:22.169Z,101536.00
2023-05-14T21:23:50.320Z,101529.19
2023-05-14T21:26:18.061Z,101527.56
2023-05-14T21:28:45.733Z,101534.22
2023-05-14T21:31:13.520Z,101530.44
2023-05-14T21:33:42.570Z,101531.94
2023-05-14T21:36:10.841Z,101523.25
2023-05-14T21:38:38.715Z,101522.50
2023-05-14T21:41:06.509Z,101521.75
2023-05-14T21:43:34.517Z,101520.69
2023-05-14T21:46:02.249Z,101523.47
2023-05-14T21:48:30.052Z,101521.38
2023-05-14T21:50:59.248Z,101527.00
2023-05-14T21:53:27.003Z,101525.03
2023-05-14T21:55:55.252Z,101514.53
2023-05-14T21:58:23.044Z,101521.91
2023-05-14T22:00:50.828Z,101520.09
2023-05-14T22:03:18.687Z,101523.38
2023-05-14T22:05:46.411Z,101517.22
2023-05-14T22:08:17.344Z,101519.06
2023-05-14T22:10:45.436Z,101521.91
2023-05-14T22:13:13.216Z,101520.75
2023-05-14T22:15:40.959Z,101520.25
2023-05-14T22:18:08.858Z,101516.16
2023-05-14T22:20:36.623Z,101512.38
2023-05-14T22:23:04.397Z,101507.88
2023-05-14T22:25:33.491Z,101510.28
2023-05-14T22:28:01.202Z,101512.16
2023-05-14T22:30:28.866Z,101519.13
2023-05-14T22:32:56.723Z,101517.28
2023-05-14T22:35:24.574Z,101508.13
2023-05-14T22:37:52.548Z,101512.50
2023-05-14T22:40:20.411Z,101515.94
2023-05-14T22:42:49.477Z,101517.22
2023-05-14T22:45:17.310Z,101509.06
2023-05-14T22:47:45.060Z,101515.47
2023-05-14T22:50:12.772Z,101510.44
2023-05-14T22:52:41.212Z,101508.34
2023-05-14T22:55:09.693Z,101519.19
2023-05-14T22:57:37.498Z,101513.97
2023-05-14T23:00:09.107Z,101503.06
2023-05-14T23:02:36.925Z,101516.94
2023-05-14T23:05:05.074Z,101507.00
2023-05-14T23:07:32.750Z,101504.03
2023-05-14T23:10:00.515Z,101503.72
2023-05-14T23:12:28.266Z,101506.38
2023-05-14T23:14:56.030Z,101505.69
2023-05-14T23:17:25.148Z,101505.50
2023-05-14T23:19:53.071Z,101504.25
2023-05-14T23:22:20.814Z,101497.56
2023-05-14T23:24:48.536Z,101498.44
2023-05-14T23:27:16.427Z,101497.78
2023-05-14T23:29:44.113Z,101492.00
2023-05-14T23:32:12.023Z,101497.69
2023-05-14T23:34:41.170Z,101492.34
2023-05-14T23:37:09.078Z,101488.97
2023-05-14T23:39:37.107Z,101487.63
2023-05-14T23:42:04.967Z,101480.38
2023-05-14T23:44:32.643Z,101481.09
2023-05-14T23:47:00.597Z,101483.50
2023-05-14T23:49:28.353Z,101481.31
2023-05-14T23:51:57.630Z,101473.00
2023-05-14T23:54:25.410Z,101480.28
2023-05-14T23:56:53.400Z,101480.28
2023-05-14T23:59:21.497Z,101479.41
